createdAt,value
2023-06-08T00:00:07.145Z,1.00
2023-06-08T00:02:41.098Z,0.80
2023-06-08T00:05:14.736Z,0.82
2023-06-08T00:07:43.738Z,1.00
2023-06-08T00:10:12.678Z,1.00
2023-06-08T00:12:41.339Z,1.10
2023-06-08T00:15:14.910Z,0.93
2023-06-08T00:17:45.413Z,0.90
2023-06-08T00:20:14.602Z,0.88
2023-06-08T00:22:44.694Z,1.00
2023-06-08T00:25:13.426Z,1.00
2023-06-08T00:27:42.127Z,1.10
2023-06-08T00:30:15.042Z,1.08
2023-06-08T00:32:43.869Z,0.90
2023-06-08T00:35:12.530Z,1.00
2023-06-08T00:37:41.216Z,0.90
2023-06-08T00:40:10.884Z,0.90
2023-06-08T00:42:39.649Z,1.42
2023-06-08T00:45:09.045Z,0.85
2023-06-08T00:47:39.478Z,1.05
2023-06-08T00:50:09.570Z,0.88
2023-06-08T00:52:40.494Z,1.08
2023-06-08T00:55:09.576Z,1.17
2023-06-08T00:57:39.178Z,0.93
2023-06-08T01:00:12.612Z,0.98
2023-06-08T01:02:44.136Z,0.90
2023-06-08T01:05:14.127Z,0.80
2023-06-08T01:07:50.572Z,1.00
2023-06-08T01:10:21.527Z,1.05
2023-06-08T01:12:59.186Z,1.08
2023-06-08T01:15:31.120Z,1.10
2023-06-08T01:18:06.038Z,0.98
2023-06-08T01:20:38.957Z,0.93
2023-06-08T01:23:21.967Z,1.08
2023-06-08T01:25:54.351Z,1.00
2023-06-08T01:28:23.691Z,0.90
2023-06-08T01:30:52.548Z,0.90
2023-06-08T01:33:22.713Z,1.00
2023-06-08T01:35:55.555Z,1.00
2023-06-08T01:38:28.959Z,0.90
2023-06-08T01:41:03.290Z,1.00
2023-06-08T01:43:33.038Z,0.90
2023-06-08T01:46:02.895Z,1.02
2023-06-08T01:48:32.048Z,1.05
2023-06-08T01:51:01.213Z,1.00
2023-06-08T01:53:30.082Z,0.80
2023-06-08T01:56:00.184Z,0.98
2023-06-08T01:58:28.885Z,1.00
2023-06-08T02:00:57.728Z,0.80
2023-06-08T02:03:26.524Z,1.00
2023-06-08T02:05:55.222Z,1.00
2023-06-08T02:08:23.926Z,1.10
2023-06-08T02:10:52.733Z,0.90
2023-06-08T02:13:22.833Z,1.00
2023-06-08T02:15:52.242Z,0.90
2023-06-08T02:18:21.153Z,1.20
2023-06-08T02:20:49.938Z,1.20
2023-06-08T02:23:19.286Z,1.10
2023-06-08T02:25:49.183Z,0.80
2023-06-08T02:28:17.982Z,0.98
2023-06-08T02:30:48.087Z,1.30
2023-06-08T02:33:17.289Z,1.27
2023-06-08T02:35:47.772Z,1.08
2023-06-08T02:38:17.459Z,1.00
2023-06-08T02:40:46.299Z,1.10
2023-06-08T02:43:16.769Z,1.55
2023-06-08T02:45:50.398Z,1.15
2023-06-08T02:48:21.626Z,1.20
2023-06-08T02:50:50.379Z,1.00
2023-06-08T02:53:19.199Z,0.90
2023-06-08T02:55:51.987Z,1.08
2023-06-08T02:58:25.753Z,1.05
2023-06-08T03:01:07.454Z,1.00
2023-06-08T03:03:53.690Z,1.00
2023-06-08T03:06:28.211Z,1.00
2023-06-08T03:09:00.438Z,1.17
2023-06-08T03:11:33.169Z,1.02
2023-06-08T03:14:04.340Z,0.93
2023-06-08T03:16:37.020Z,1.17
2023-06-08T03:19:08.048Z,1.13
2023-06-08T03:21:37.800Z,1.08
2023-06-08T03:24:08.397Z,1.10
2023-06-08T03:26:39.103Z,0.90
2023-06-08T03:29:09.747Z,1.00
2023-06-08T03:31:42.142Z,1.20
2023-06-08T03:34:18.699Z,1.23
2023-06-08T03:36:48.352Z,1.10
2023-06-08T03:39:21.455Z,1.00
2023-06-08T03:41:50.240Z,0.90
2023-06-08T03:44:21.492Z,1.08
2023-06-08T03:46:51.790Z,0.98
2023-06-08T03:49:20.666Z,1.02
2023-06-08T03:51:49.420Z,1.10
2023-06-08T03:54:18.085Z,1.08
2023-06-08T03:56:47.330Z,1.48
2023-06-08T03:59:16.163Z,0.98
2023-06-08T04:01:46.366Z,1.20
2023-06-08T04:04:19.372Z,1.30
2023-06-08T04:06:48.189Z,1.05
2023-06-08T04:09:17.068Z,1.00
2023-06-08T04:11:45.909Z,1.15
2023-06-08T04:14:14.862Z,1.25
2023-06-08T04:16:43.636Z,1.13
2023-06-08T04:19:12.489Z,1.15
2023-06-08T04:21:45.461Z,1.30
2023-06-08T04:24:19.095Z,1.35
2023-06-08T04:26:47.999Z,1.40
2023-06-08T04:29:17.231Z,1.30
2023-06-08T04:31:46.445Z,1.10
2023-06-08T04:34:16.988Z,1.40
2023-06-08T04:36:47.831Z,1.45
2023-06-08T04:39:17.370Z,1.48
2023-06-08T04:41:47.321Z,1.58
2023-06-08T04:44:22.080Z,1.42
2023-06-08T04:46:54.678Z,1.52
2023-06-08T04:49:23.657Z,1.45
2023-06-08T04:51:56.762Z,1.95
2023-06-08T04:54:29.949Z,1.70
2023-06-08T04:57:00.490Z,1.67
2023-06-08T04:59:29.456Z,1.73
2023-06-08T05:01:58.192Z,1.70
2023-06-08T05:04:26.878Z,1.80
2023-06-08T05:06:57.026Z,1.98
2023-06-08T05:09:27.150Z,2.17
2023-06-08T05:11:55.852Z,1.80
2023-06-08T05:14:24.571Z,2.08
2023-06-08T05:16:53.353Z,2.03
2023-06-08T05:19:22.131Z,2.03
2023-06-08T05:21:50.881Z,2.00
2023-06-08T05:24:21.060Z,1.83
2023-06-08T05:26:49.993Z,2.13
2023-06-08T05:29:18.683Z,2.30
2023-06-08T05:31:47.386Z,2.08
2023-06-08T05:34:16.340Z,2.17
2023-06-08T05:36:45.765Z,1.98
2023-06-08T05:39:14.486Z,2.00
2023-06-08T05:41:44.797Z,2.05
2023-06-08T05:44:13.479Z,2.00
2023-06-08T05:46:42.518Z,2.22
2023-06-08T05:49:11.904Z,2.30
2023-06-08T05:51:40.708Z,1.98
2023-06-08T05:54:09.420Z,2.78
2023-06-08T05:56:38.279Z,1.90
2023-06-08T05:59:08.381Z,2.08
2023-06-08T06:01:38.125Z,2.28
2023-06-08T06:04:11.154Z,2.05
2023-06-08T06:06:44.520Z,2.20
2023-06-08T06:09:13.356Z,1.83
2023-06-08T06:11:42.134Z,2.20
2023-06-08T06:14:12.163Z,2.00
2023-06-08T06:16:42.509Z,2.13
2023-06-08T06:19:12.824Z,1.90
2023-06-08T06:21:41.736Z,2.10
2023-06-08T06:24:10.960Z,2.30
2023-06-08T06:26:39.761Z,2.13
2023-06-08T06:29:08.476Z,2.25
2023-06-08T06:31:38.687Z,2.30
2023-06-08T06:34:07.349Z,1.85
2023-06-08T06:36:36.011Z,1.88
2023-06-08T06:39:04.818Z,1.73
2023-06-08T06:41:33.612Z,1.63
2023-06-08T06:44:02.351Z,2.20
2023-06-08T06:46:31.130Z,2.92
2023-06-08T06:49:01.247Z,2.40
2023-06-08T06:51:30.159Z,1.75
2023-06-08T06:53:58.847Z,1.83
2023-06-08T06:56:27.897Z,2.00
2023-06-08T06:58:57.596Z,1.90
2023-06-08T07:01:26.322Z,2.25
2023-06-08T07:03:55.138Z,2.10
2023-06-08T07:06:25.953Z,1.65
2023-06-08T07:08:54.752Z,2.08
2023-06-08T07:11:23.605Z,2.15
2023-06-08T07:13:52.331Z,2.28
2023-06-08T07:16:25.309Z,2.42
2023-06-08T07:18:55.971Z,2.40
2023-06-08T07:21:32.556Z,2.17
2023-06-08T07:25:02.051Z,2.30
2023-06-08T07:27:00.149Z,2.20
2023-06-08T07:29:28.979Z,2.30
2023-06-08T07:31:57.847Z,2.70
2023-06-08T07:34:27.342Z,2.28
2023-06-08T07:36:57.552Z,2.90
2023-06-08T07:39:26.224Z,1.98
2023-06-08T07:41:54.970Z,2.55
2023-06-08T07:44:23.630Z,3.15
2023-06-08T07:46:52.525Z,2.97
2023-06-08T07:49:21.210Z,2.70
2023-06-08T07:51:50.013Z,2.67
2023-06-08T07:54:20.624Z,2.67
2023-06-08T07:56:49.501Z,3.40
2023-06-08T07:59:18.618Z,2.70
2023-06-08T08:01:47.520Z,2.72
2023-06-08T08:04:16.435Z,2.67
2023-06-08T08:06:45.192Z,2.38
2023-06-08T08:09:13.971Z,3.20
2023-06-08T08:11:44.268Z,2.55
2023-06-08T08:14:12.907Z,2.75
2023-06-08T08:16:41.677Z,2.88
2023-06-08T08:19:10.471Z,2.90
2023-06-08T08:21:39.256Z,2.60
2023-06-08T08:24:08.468Z,2.13
2023-06-08T08:26:37.317Z,2.33
2023-06-08T08:29:07.478Z,2.88
2023-06-08T08:31:36.341Z,2.30
2023-06-08T08:34:05.882Z,2.38
2023-06-08T08:36:34.600Z,1.90
2023-06-08T08:39:03.313Z,1.92
2023-06-08T08:41:33.015Z,2.05
2023-06-08T08:44:04.408Z,2.90
2023-06-08T08:46:36.124Z,2.10
2023-06-08T08:49:06.766Z,3.60
2023-06-08T08:51:39.479Z,2.28
2023-06-08T08:54:09.038Z,2.28
2023-06-08T08:56:38.759Z,2.28
2023-06-08T08:59:08.480Z,2.38
2023-06-08T09:01:41.090Z,2.80
2023-06-08T09:04:10.218Z,2.50
2023-06-08T09:06:38.986Z,2.50
2023-06-08T09:09:08.447Z,2.70
2023-06-08T09:11:57.199Z,2.30
2023-06-08T09:14:26.185Z,2.10
2023-06-08T09:16:57.137Z,2.00
2023-06-08T09:19:25.971Z,2.25
2023-06-08T09:21:54.637Z,2.40
2023-06-08T09:24:24.010Z,4.45
2023-06-08T09:26:55.040Z,2.42
2023-06-08T09:29:34.006Z,2.45
2023-06-08T09:32:04.470Z,1.95
2023-06-08T09:34:34.892Z,2.70
2023-06-08T09:37:09.213Z,3.08
2023-06-08T09:39:42.233Z,2.45
2023-06-08T09:42:11.400Z,2.35
2023-06-08T09:44:40.381Z,2.75
2023-06-08T09:47:27.646Z,2.33
2023-06-08T09:49:57.079Z,2.30
2023-06-08T09:52:29.067Z,2.50
2023-06-08T09:54:58.180Z,2.33
2023-06-08T09:57:27.173Z,2.40
2023-06-08T09:59:56.689Z,2.55
2023-06-08T10:02:31.771Z,2.35
2023-06-08T10:05:03.115Z,2.13
2023-06-08T10:07:36.896Z,2.33
2023-06-08T10:10:07.636Z,2.47
2023-06-08T10:12:36.646Z,2.33
2023-06-08T10:15:06.077Z,2.40
2023-06-08T10:17:37.045Z,2.42
2023-06-08T10:20:06.758Z,2.25
2023-06-08T10:22:37.088Z,2.08
2023-06-08T10:25:08.959Z,2.10
2023-06-08T10:27:38.886Z,2.55
2023-06-08T10:30:08.483Z,2.08
2023-06-08T10:32:40.955Z,1.95
2023-06-08T10:35:10.943Z,2.10
2023-06-08T10:37:42.734Z,2.10
2023-06-08T10:40:12.672Z,1.92
2023-06-08T10:42:53.283Z,2.03
2023-06-08T10:45:33.404Z,2.33
2023-06-08T10:48:09.872Z,1.80
2023-06-08T10:50:42.012Z,2.42
2023-06-08T10:53:10.799Z,1.85
2023-06-08T10:55:39.634Z,2.28
2023-06-08T10:58:08.658Z,2.33
2023-06-08T11:00:43.791Z,1.98
2023-06-08T11:03:15.376Z,2.25
2023-06-08T11:05:46.026Z,2.20
2023-06-08T11:08:14.883Z,2.20
2023-06-08T11:10:43.917Z,1.77
2023-06-08T11:13:13.651Z,2.00
2023-06-08T11:15:43.031Z,2.05
2023-06-08T11:18:12.375Z,1.50
2023-06-08T11:20:44.047Z,1.80
2023-06-08T11:23:13.445Z,1.83
2023-06-08T11:25:43.146Z,1.85
2023-06-08T11:28:13.653Z,2.10
2023-06-08T11:30:42.408Z,1.77
2023-06-08T11:33:15.655Z,1.80
2023-06-08T11:35:46.247Z,1.77
2023-06-08T11:38:14.990Z,1.73
2023-06-08T11:40:44.319Z,1.98
2023-06-08T11:43:13.834Z,1.70
2023-06-08T11:45:42.617Z,2.00
2023-06-08T11:50:49.560Z,1.80
2023-06-08T11:53:24.440Z,2.60
2023-06-08T11:55:54.933Z,1.73
2023-06-08T11:58:27.949Z,2.20
2023-06-08T12:01:09.003Z,1.63
2023-06-08T12:03:45.120Z,1.90
2023-06-08T12:06:16.224Z,1.67
2023-06-08T12:08:45.821Z,1.73
2023-06-08T12:11:16.084Z,1.88
2023-06-08T12:13:47.185Z,1.77
2023-06-08T12:16:16.096Z,1.70
2023-06-08T12:18:46.202Z,2.90
2023-06-08T12:21:19.884Z,1.45
2023-06-08T12:23:48.722Z,1.90
2023-06-08T12:26:17.468Z,1.60
2023-06-08T12:28:46.211Z,1.60
2023-06-08T12:31:14.868Z,1.83
2023-06-08T12:33:44.965Z,1.80
2023-06-08T12:36:13.697Z,1.85
2023-06-08T12:38:44.783Z,1.98
2023-06-08T12:41:13.440Z,2.78
2023-06-08T12:43:46.301Z,2.67
2023-06-08T12:46:20.333Z,2.10
2023-06-08T12:48:50.092Z,2.40
2023-06-08T12:51:18.880Z,2.20
2023-06-08T12:53:49.105Z,1.90
2023-06-08T12:56:18.454Z,2.20
2023-06-08T12:58:47.242Z,2.08
2023-06-08T13:01:16.040Z,2.28
2023-06-08T13:03:45.144Z,2.10
2023-06-08T13:06:14.014Z,1.90
2023-06-08T13:08:42.730Z,1.98
2023-06-08T13:11:12.995Z,2.45
2023-06-08T13:13:42.184Z,2.40
2023-06-08T13:16:11.051Z,2.40
2023-06-08T13:18:40.087Z,2.22
2023-06-08T13:21:09.624Z,2.00
2023-06-08T13:23:39.195Z,2.63
2023-06-08T13:26:07.881Z,2.20
2023-06-08T13:28:39.561Z,2.20
2023-06-08T13:31:08.371Z,2.58
2023-06-08T13:33:37.141Z,2.00
2023-06-08T13:36:06.135Z,2.40
2023-06-08T13:38:35.125Z,2.30
2023-06-08T13:41:03.830Z,2.35
2023-06-08T13:43:32.560Z,2.67
2023-06-08T13:46:03.726Z,2.75
2023-06-08T13:48:32.484Z,2.40
2023-06-08T13:51:01.130Z,2.65
2023-06-08T13:53:29.861Z,3.13
2023-06-08T13:56:00.385Z,2.25
2023-06-08T13:58:29.247Z,2.80
2023-06-08T14:00:58.097Z,2.40
2023-06-08T14:03:28.314Z,2.90
2023-06-08T14:05:57.767Z,2.28
2023-06-08T14:08:26.825Z,2.28
2023-06-08T14:10:55.642Z,2.30
2023-06-08T14:13:24.506Z,2.53
2023-06-08T14:15:53.313Z,2.40
2023-06-08T14:18:22.074Z,2.10
2023-06-08T14:20:52.266Z,2.15
2023-06-08T14:23:20.926Z,2.30
2023-06-08T14:25:49.822Z,1.88
2023-06-08T14:28:18.616Z,2.47
2023-06-08T14:30:47.333Z,2.28
2023-06-08T14:33:16.271Z,2.38
2023-06-08T14:35:47.145Z,1.95
2023-06-08T14:38:17.211Z,2.28
2023-06-08T14:40:46.073Z,2.30
2023-06-08T14:43:14.898Z,2.08
2023-06-08T14:45:43.563Z,2.05
2023-06-08T14:48:12.624Z,2.40
2023-06-08T14:50:41.341Z,2.03
2023-06-08T14:53:10.175Z,1.88
2023-06-08T14:55:40.499Z,1.75
2023-06-08T14:58:09.302Z,2.17
2023-06-08T15:00:38.077Z,1.85
2023-06-08T15:03:08.506Z,1.83
2023-06-08T15:05:37.301Z,2.00
2023-06-08T15:08:06.190Z,1.70
2023-06-08T15:10:35.115Z,2.13
2023-06-08T15:13:07.950Z,1.88
2023-06-08T15:15:37.006Z,2.05
2023-06-08T15:18:05.735Z,1.77
2023-06-08T15:20:34.412Z,1.90
2023-06-08T15:23:03.215Z,2.03
2023-06-08T15:25:31.904Z,1.52
2023-06-08T15:28:00.712Z,1.60
2023-06-08T15:30:30.693Z,1.58
2023-06-08T15:32:59.447Z,1.67
2023-06-08T15:35:28.456Z,1.70
2023-06-08T15:37:57.126Z,1.65
2023-06-08T15:40:25.886Z,1.55
2023-06-08T15:42:54.651Z,1.63
2023-06-08T15:45:23.506Z,1.42
2023-06-08T15:47:53.649Z,1.63
2023-06-08T15:50:22.452Z,1.75
2023-06-08T15:52:51.268Z,1.40
2023-06-08T15:55:20.072Z,1.88
2023-06-08T15:57:49.239Z,1.50
2023-06-08T16:00:20.041Z,1.45
2023-06-08T16:02:51.375Z,1.55
2023-06-08T16:05:21.628Z,1.73
2023-06-08T16:07:50.478Z,1.23
2023-06-08T16:10:19.136Z,1.75
2023-06-08T16:12:48.009Z,1.45
2023-06-08T16:15:16.772Z,1.48
2023-06-08T16:17:45.648Z,1.20
2023-06-08T16:20:14.761Z,1.40
2023-06-08T16:22:44.775Z,1.38
2023-06-08T16:25:13.486Z,1.50
2023-06-08T16:27:42.155Z,1.58
2023-06-08T16:30:11.435Z,1.30
2023-06-08T16:32:40.185Z,2.05
2023-06-08T16:35:09.174Z,1.20
2023-06-08T16:37:37.897Z,1.05
2023-06-08T16:40:09.196Z,1.20
2023-06-08T16:42:40.239Z,1.70
2023-06-08T16:45:09.411Z,1.25
2023-06-08T16:47:41.002Z,1.40
2023-06-08T16:50:10.551Z,1.05
2023-06-08T16:52:39.360Z,1.38
2023-06-08T16:55:10.274Z,1.40
2023-06-08T16:57:39.296Z,1.10
2023-06-08T17:00:09.483Z,0.90
2023-06-08T17:02:38.893Z,1.25
2023-06-08T17:05:08.644Z,1.10
2023-06-08T17:07:37.521Z,1.20
2023-06-08T17:10:06.875Z,1.10
2023-06-08T17:12:37.620Z,1.15
2023-06-08T17:15:06.635Z,1.20
2023-06-08T17:17:35.634Z,1.15
2023-06-08T17:20:04.507Z,1.02
2023-06-08T17:22:33.400Z,1.20
2023-06-08T17:25:02.203Z,1.30
2023-06-08T17:27:30.845Z,1.35
2023-06-08T17:30:01.225Z,1.00
2023-06-08T17:32:29.955Z,1.10
2023-06-08T17:34:58.701Z,1.00
2023-06-08T17:37:27.397Z,1.00
2023-06-08T17:39:56.120Z,1.05
2023-06-08T17:42:24.827Z,1.00
2023-06-08T17:44:53.560Z,0.80
2023-06-08T17:47:23.614Z,0.70
2023-06-08T17:49:53.246Z,1.08
2023-06-08T17:52:22.123Z,1.13
2023-06-08T17:54:51.279Z,0.80
2023-06-08T17:57:20.109Z,1.20
2023-06-08T17:59:48.884Z,0.82
2023-06-08T18:02:20.681Z,0.90
2023-06-08T18:04:50.781Z,0.80
2023-06-08T18:07:19.455Z,0.90
2023-06-08T18:09:48.277Z,0.80
2023-06-08T18:12:17.095Z,0.80
2023-06-08T18:14:45.717Z,1.00
2023-06-08T18:17:14.534Z,1.13
2023-06-08T18:19:43.274Z,1.02
2023-06-08T18:22:14.152Z,0.93
2023-06-08T18:24:42.984Z,0.80
2023-06-08T18:27:12.287Z,0.93
2023-06-08T18:29:41.130Z,1.13
2023-06-08T18:32:11.808Z,0.98
2023-06-08T18:34:40.670Z,1.10
2023-06-08T18:37:09.657Z,1.20
2023-06-08T18:39:52.892Z,1.02
2023-06-08T18:42:26.497Z,1.15
2023-06-08T18:44:58.262Z,0.90
2023-06-08T18:47:28.533Z,0.93
2023-06-08T18:49:58.503Z,1.08
2023-06-08T18:52:27.176Z,1.02
2023-06-08T18:54:57.283Z,1.15
2023-06-08T18:57:26.226Z,1.00
2023-06-08T18:59:54.891Z,1.10
2023-06-08T19:02:23.624Z,0.90
2023-06-08T19:04:52.722Z,1.30
2023-06-08T19:07:24.110Z,1.20
2023-06-08T19:09:53.250Z,1.10
2023-06-08T19:12:23.674Z,1.10
2023-06-08T19:14:52.433Z,1.10
2023-06-08T19:17:21.109Z,0.98
2023-06-08T19:19:49.945Z,0.90
2023-06-08T19:22:18.718Z,1.00
2023-06-08T19:24:47.590Z,1.05
2023-06-08T19:27:16.399Z,1.05
2023-06-08T19:29:46.549Z,1.00
2023-06-08T19:32:15.588Z,1.30
2023-06-08T19:34:44.401Z,1.23
2023-06-08T19:37:13.261Z,1.13
2023-06-08T19:39:42.021Z,1.25
2023-06-08T19:42:11.506Z,1.08
2023-06-08T19:44:40.997Z,1.40
2023-06-08T19:47:11.069Z,1.10
2023-06-08T19:49:39.936Z,0.90
2023-06-08T19:52:09.502Z,1.00
2023-06-08T19:54:38.342Z,1.00
2023-06-08T19:57:08.168Z,0.82
2023-06-08T19:59:39.310Z,1.10
2023-06-08T20:02:08.303Z,1.05
2023-06-08T20:04:38.542Z,1.10
2023-06-08T20:07:13.614Z,1.00
2023-06-08T20:09:43.505Z,1.05
2023-06-08T20:12:13.000Z,2.95
2023-06-08T20:14:41.952Z,2.20
2023-06-08T20:17:10.810Z,2.15
2023-06-08T20:19:41.148Z,1.27
2023-06-08T20:22:09.840Z,1.40
2023-06-08T20:24:40.386Z,1.30
2023-06-08T20:27:09.261Z,0.98
2023-06-08T20:29:38.000Z,1.00
2023-06-08T20:32:07.508Z,1.30
2023-06-08T20:34:36.255Z,1.00
2023-06-08T20:37:06.961Z,1.23
2023-06-08T20:39:35.854Z,1.13
2023-06-08T20:42:04.547Z,0.90
2023-06-08T20:44:33.275Z,0.85
2023-06-08T20:47:02.039Z,1.15
2023-06-08T20:49:30.872Z,0.85
2023-06-08T20:52:00.159Z,1.00
2023-06-08T20:54:30.377Z,1.10
2023-06-08T20:56:59.444Z,1.10
2023-06-08T20:59:28.248Z,1.17
2023-06-08T21:01:56.972Z,1.05
2023-06-08T21:04:30.639Z,1.38
2023-06-08T21:06:59.512Z,1.23
2023-06-08T21:09:28.418Z,1.33
2023-06-08T21:11:58.621Z,1.20
2023-06-08T21:14:29.001Z,1.50
2023-06-08T21:16:57.783Z,1.50
2023-06-08T21:19:26.471Z,1.40
2023-06-08T21:21:55.159Z,1.38
2023-06-08T21:24:27.924Z,1.25
2023-06-08T21:26:58.679Z,1.33
2023-06-08T21:29:27.404Z,0.80
2023-06-08T21:31:56.467Z,1.10
2023-06-08T21:34:26.090Z,1.20
2023-06-08T21:36:55.654Z,1.50
2023-06-08T21:39:24.750Z,1.00
2023-06-08T21:41:53.476Z,1.05
2023-06-08T21:44:23.486Z,1.00
2023-06-08T21:46:52.191Z,0.75
2023-06-08T21:49:20.871Z,1.30
2023-06-08T21:51:49.536Z,1.02
2023-06-08T21:54:18.636Z,0.95
2023-06-08T21:56:47.619Z,0.90
2023-06-08T21:59:16.332Z,0.98
2023-06-08T22:01:46.431Z,1.27
2023-06-08T22:04:15.379Z,0.90
2023-06-08T22:06:44.969Z,0.88
2023-06-08T22:09:13.766Z,0.98
2023-06-08T22:11:45.146Z,1.15
2023-06-08T22:14:14.212Z,1.05
2023-06-08T22:16:43.177Z,1.10
2023-06-08T22:19:14.343Z,1.30
2023-06-08T22:21:43.277Z,1.88
2023-06-08T22:24:12.102Z,1.17
2023-06-08T22:26:41.083Z,1.23
2023-06-08T22:29:10.608Z,1.00
2023-06-08T22:31:39.304Z,0.90
2023-06-08T22:34:07.998Z,0.85
2023-06-08T22:36:39.366Z,1.05
2023-06-08T22:39:08.550Z,0.93
2023-06-08T22:41:37.219Z,0.80
2023-06-08T22:44:05.988Z,0.80
2023-06-08T22:46:34.786Z,0.88
2023-06-08T22:49:03.751Z,0.73
2023-06-08T22:51:34.932Z,1.10
2023-06-08T22:54:05.321Z,1.50
2023-06-08T22:56:33.983Z,1.00
2023-06-08T22:59:02.667Z,1.00
2023-06-08T23:01:31.440Z,1.00
2023-06-08T23:04:00.170Z,1.00
2023-06-08T23:06:28.886Z,0.90
2023-06-08T23:08:57.656Z,1.08
2023-06-08T23:11:29.359Z,1.25
2023-06-08T23:13:58.802Z,1.00
2023-06-08T23:16:27.655Z,0.93
2023-06-08T23:18:56.410Z,1.15
2023-06-08T23:21:25.989Z,0.90
2023-06-08T23:23:54.801Z,1.17
2023-06-08T23:26:29.071Z,0.90
2023-06-08T23:28:59.841Z,0.90
2023-06-08T23:31:28.780Z,1.17
2023-06-08T23:33:57.735Z,0.90
2023-06-08T23:36:26.470Z,0.93
2023-06-08T23:38:55.134Z,1.00
2023-06-08T23:41:24.311Z,1.38
2023-06-08T23:43:52.984Z,1.10
2023-06-08T23:46:25.420Z,1.02
2023-06-08T23:48:54.256Z,0.90
2023-06-08T23:51:23.017Z,1.25
2023-06-08T23:53:51.785Z,1.08
2023-06-08T23:56:20.423Z,1.10
2023-06-08T23:58:49.093Z,1.10
